Time;durP1;ratioP1;P1;durP2;ratioP2;P2;SDS_P1;SDS_P2;PMS_P1;PMS_P2;Temp;Humidity;BMP_temperature;BMP_pressure;BME280_temperature;BME280_humidity;BME280_pressure;Samples;Min_cycle;Max_cycle;Signal;HPM_P1;HPM_P2
2023/09/08 00:01:44;;;;;;;;;;;18.80;99.90;;;;;;5043309;28;19920;-68
2023/09/08 00:04:11;;;;;;;;;;;18.80;99.90;;;;;;5044301;28;19921;-68
2023/09/08 00:06:36;;;;;;;;;;;18.70;99.90;;;;;;5043170;28;20284;-67
2023/09/08 00:09:02;;;;;;;;;;;18.70;99.90;;;;;;5045536;28;19955;-67
2023/09/08 00:11:28;;;;;;;;;;;18.60;99.90;;;;;;5042142;28;19917;-67
2023/09/08 00:13:54;;;;;;;;;;;18.60;99.90;;;;;;5044377;28;19974;-67
2023/09/08 00:16:19;;;;;;;;;;;18.50;99.90;;;;;;5040322;28;20446;-68
2023/09/08 00:18:45;;;;;;;;;;;18.50;99.90;;;;;;5042846;28;19931;-68
2023/09/08 00:21:10;;;;;;;;;;;18.50;99.90;;;;;;5038417;28;19924;-68
2023/09/08 00:23:37;;;;;;;;;;;18.40;99.90;;;;;;5046766;28;19954;-67
2023/09/08 00:26:02;;;;;;;;;;;18.40;99.90;;;;;;5043493;28;19981;-68
2023/09/08 00:28:28;;;;;;;;;;;18.40;99.90;;;;;;5042186;28;19925;-68
2023/09/08 00:30:53;;;;;;;;;;;18.40;99.90;;;;;;5040412;28;19916;-67
2023/09/08 00:33:19;;;;;;;;;;;18.30;99.90;;;;;;5037863;28;20019;-67
2023/09/08 00:35:45;;;;;;;;;;;18.30;99.90;;;;;;5039039;28;20012;-68
2023/09/08 00:38:10;;;;;;;;;;;18.30;99.90;;;;;;5043779;28;19920;-68
2023/09/08 00:40:36;;;;;;;;;;;18.30;99.90;;;;;;5038666;28;20149;-67
2023/09/08 00:43:01;;;;;;;;;;;18.30;99.90;;;;;;5041056;28;19916;-68
2023/09/08 00:45:29;;;;;;;;;;;18.30;99.90;;;;;;5041621;28;20714;-67
2023/09/08 00:47:55;;;;;;;;;;;18.20;99.90;;;;;;5036287;28;20357;-67
2023/09/08 00:50:20;;;;;;;;;;;18.20;99.90;;;;;;5072070;28;19917;-68
2023/09/08 00:52:46;;;;;;;;;;;18.20;99.90;;;;;;5038258;28;19917;-68
2023/09/08 00:55:11;;;;;;;;;;;18.20;99.90;;;;;;5045569;28;19925;-68
2023/09/08 00:57:37;;;;;;;;;;;18.20;99.90;;;;;;5038406;28;19924;-68
2023/09/08 01:00:05;;;;;;;;;;;18.10;99.90;;;;;;5038223;28;19981;-68
2023/09/08 01:02:31;;;;;;;;;;;18.10;99.90;;;;;;5034670;28;19921;-68
2023/09/08 01:04:59;;;;;;;;;;;18.10;99.90;;;;;;5040947;28;19920;-67
2023/09/08 01:07:26;;;;;;;;;;;18.10;99.90;;;;;;5041108;28;20294;-67
2023/09/08 01:09:52;;;;;;;;;;;18.10;99.90;;;;;;5037228;28;20390;-68
2023/09/08 01:12:18;;;;;;;;;;;18.00;99.90;;;;;;5038576;28;20007;-67
2023/09/08 01:14:44;;;;;;;;;;;18.00;99.90;;;;;;5043430;28;19917;-67
2023/09/08 01:17:09;;;;;;;;;;;18.00;99.90;;;;;;5042460;28;19924;-67
2023/09/08 01:19:35;;;;;;;;;;;18.00;99.90;;;;;;5043440;28;19947;-67
2023/09/08 01:22:00;;;;;;;;;;;17.90;99.90;;;;;;5043716;28;20379;-67
2023/09/08 01:24:37;;;;;;;;;;;17.90;99.90;;;;;;5040716;28;19920;-68
2023/09/08 01:27:03;;;;;;;;;;;17.90;99.90;;;;;;5037364;28;19987;-67
2023/09/08 01:29:29;;;;;;;;;;;17.80;99.90;;;;;;5038848;28;19972;-67
2023/09/08 01:31:55;;;;;;;;;;;17.80;99.90;;;;;;5044012;28;19920;-68
2023/09/08 01:34:20;;;;;;;;;;;17.80;99.90;;;;;;5038551;28;19920;-68
2023/09/08 01:36:46;;;;;;;;;;;17.70;99.90;;;;;;5042209;28;19924;-68
2023/09/08 01:39:11;;;;;;;;;;;17.70;99.90;;;;;;5041642;28;19936;-68
2023/09/08 01:41:37;;;;;;;;;;;17.60;99.90;;;;;;5071467;28;19921;-67
2023/09/08 01:44:07;;;;;;;;;;;17.50;99.90;;;;;;5039600;28;19917;-67
2023/09/08 01:46:33;;;;;;;;;;;17.50;99.90;;;;;;5037293;28;19920;-68
2023/09/08 01:48:59;;;;;;;;;;;17.50;99.90;;;;;;5038195;28;19948;-67
2023/09/08 01:51:24;;;;;;;;;;;17.50;99.90;;;;;;5036676;28;20390;-67
2023/09/08 01:53:50;;;;;;;;;;;17.50;99.90;;;;;;5037847;28;19987;-68
2023/09/08 01:56:15;;;;;;;;;;;17.40;99.90;;;;;;5041129;28;19917;-68
2023/09/08 01:58:41;;;;;;;;;;;17.40;99.90;;;;;;5043779;28;19925;-68
2023/09/08 02:01:06;;;;;;;;;;;17.30;99.90;;;;;;5039442;28;19932;-67
2023/09/08 02:03:32;;;;;;;;;;;17.30;99.90;;;;;;5071076;28;19924;-67
2023/09/08 02:05:57;;;;;;;;;;;17.30;99.90;;;;;;5037187;28;19978;-67
2023/09/08 02:08:23;;;;;;;;;;;17.30;99.90;;;;;;5038716;28;20046;-68
2023/09/08 02:10:48;;;;;;;;;;;17.20;99.90;;;;;;5039836;28;19925;-67
2023/09/08 02:13:14;;;;;;;;;;;17.20;99.90;;;;;;5042169;28;19990;-67
2023/09/08 02:15:39;;;;;;;;;;;17.20;99.90;;;;;;5041902;28;19927;-68
2023/09/08 02:18:06;;;;;;;;;;;17.20;99.90;;;;;;5039692;28;20058;-68
2023/09/08 02:20:31;;;;;;;;;;;17.20;99.90;;;;;;5065349;28;19966;-67
2023/09/08 02:22:57;;;;;;;;;;;17.10;99.90;;;;;;5041643;28;19924;-67
2023/09/08 02:25:23;;;;;;;;;;;17.10;99.90;;;;;;5040728;28;19920;-68
2023/09/08 02:27:49;;;;;;;;;;;17.10;99.90;;;;;;5040023;28;19916;-68
2023/09/08 02:30:15;;;;;;;;;;;17.10;99.90;;;;;;5036765;28;20374;-68
2023/09/08 02:32:42;;;;;;;;;;;17.10;99.90;;;;;;5037947;28;19962;-68
2023/09/08 02:35:08;;;;;;;;;;;17.10;99.90;;;;;;5037335;28;19932;-67
2023/09/08 02:37:34;;;;;;;;;;;17.10;99.90;;;;;;5040009;28;20000;-67
2023/09/08 02:39:59;;;;;;;;;;;17.10;99.90;;;;;;5039680;28;20047;-67
2023/09/08 02:42:25;;;;;;;;;;;17.10;99.90;;;;;;5037092;28;20125;-67
2023/09/08 02:44:50;;;;;;;;;;;17.00;99.90;;;;;;5068304;28;20416;-67
2023/09/08 02:47:15;;;;;;;;;;;17.00;99.90;;;;;;5039364;28;19943;-67
2023/09/08 02:49:41;;;;;;;;;;;17.00;99.90;;;;;;5042907;28;19924;-67
2023/09/08 02:52:06;;;;;;;;;;;17.00;99.90;;;;;;5069438;28;20614;-67
2023/09/08 02:54:32;;;;;;;;;;;17.00;99.90;;;;;;5043115;28;19924;-67
2023/09/08 02:56:57;;;;;;;;;;;17.00;99.90;;;;;;5041382;28;19992;-67
2023/09/08 02:59:23;;;;;;;;;;;16.90;99.90;;;;;;5042316;28;19929;-67
2023/09/08 03:01:48;;;;;;;;;;;16.90;99.90;;;;;;5037549;28;20409;-67
2023/09/08 03:04:14;;;;;;;;;;;16.90;99.90;;;;;;5038490;28;19921;-67
2023/09/08 03:06:39;;;;;;;;;;;16.90;99.90;;;;;;5065308;28;20387;-67
2023/09/08 03:09:05;;;;;;;;;;;16.80;99.90;;;;;;5040588;28;20032;-67
2023/09/08 03:11:30;;;;;;;;;;;16.80;99.90;;;;;;5036487;28;19936;-67
2023/09/08 03:13:56;;;;;;;;;;;16.80;99.90;;;;;;5072778;28;19924;-67
2023/09/08 03:16:21;;;;;;;;;;;16.80;99.90;;;;;;5037795;28;20042;-67
2023/09/08 03:18:47;;;;;;;;;;;16.70;99.90;;;;;;5047047;28;19921;-67
2023/09/08 03:21:14;;;;;;;;;;;16.70;99.90;;;;;;5046374;28;19977;-67
2023/09/08 03:23:40;;;;;;;;;;;16.70;99.90;;;;;;5039123;28;19928;-67
2023/09/08 03:26:06;;;;;;;;;;;16.70;99.90;;;;;;5040389;28;20383;-67
2023/09/08 03:28:32;;;;;;;;;;;16.60;99.90;;;;;;5043720;28;19916;-67
2023/09/08 03:30:57;;;;;;;;;;;16.60;99.90;;;;;;5045217;28;20367;-67
2023/09/08 03:33:23;;;;;;;;;;;16.60;99.90;;;;;;5045701;28;19925;-67
2023/09/08 03:35:48;;;;;;;;;;;16.60;99.90;;;;;;5042515;28;19974;-67
2023/09/08 03:38:14;;;;;;;;;;;16.60;99.90;;;;;;5045641;28;19979;-67
2023/09/08 03:40:40;;;;;;;;;;;16.50;99.90;;;;;;5045724;28;19920;-67
2023/09/08 03:43:05;;;;;;;;;;;16.50;99.90;;;;;;5042420;28;19925;-67
2023/09/08 03:45:31;;;;;;;;;;;16.50;99.90;;;;;;5073056;28;19917;-68
2023/09/08 03:47:56;;;;;;;;;;;16.50;99.90;;;;;;5043332;28;19927;-67
2023/09/08 03:50:22;;;;;;;;;;;16.50;99.90;;;;;;5042719;28;20366;-67
2023/09/08 03:52:47;;;;;;;;;;;16.50;99.90;;;;;;5039032;28;19917;-67
2023/09/08 03:55:13;;;;;;;;;;;16.50;99.90;;;;;;5040264;28;19925;-67
2023/09/08 03:57:39;;;;;;;;;;;16.50;99.90;;;;;;5039346;28;19920;-67
2023/09/08 04:00:06;;;;;;;;;;;16.40;99.90;;;;;;5074227;28;19960;-67
2023/09/08 04:02:32;;;;;;;;;;;16.40;99.90;;;;;;5038420;28;19925;-67
2023/09/08 04:04:57;;;;;;;;;;;16.40;99.90;;;;;;5043232;28;19920;-67
2023/09/08 04:07:23;;;;;;;;;;;16.40;99.90;;;;;;5039260;28;21057;-67
2023/09/08 04:09:48;;;;;;;;;;;16.40;99.90;;;;;;5076535;28;19921;-67
2023/09/08 04:12:14;;;;;;;;;;;16.30;99.90;;;;;;5041373;28;19917;-67
2023/09/08 04:14:39;;;;;;;;;;;16.30;99.90;;;;;;5045532;28;20397;-67
2023/09/08 04:17:05;;;;;;;;;;;16.30;99.90;;;;;;5039023;28;19916;-67
2023/09/08 04:19:30;;;;;;;;;;;16.30;99.90;;;;;;5045529;28;19925;-67
2023/09/08 04:21:56;;;;;;;;;;;16.30;99.90;;;;;;5041146;28;19963;-67
2023/09/08 04:24:21;;;;;;;;;;;16.30;99.90;;;;;;5045441;28;19916;-67
2023/09/08 04:26:47;;;;;;;;;;;16.30;99.90;;;;;;5043218;28;19920;-67
2023/09/08 04:29:12;;;;;;;;;;;16.30;99.90;;;;;;5045338;28;20359;-67
2023/09/08 04:31:38;;;;;;;;;;;16.30;99.90;;;;;;5041684;28;19931;-67
2023/09/08 04:34:03;;;;;;;;;;;16.20;99.90;;;;;;5045992;28;19928;-67
2023/09/08 04:36:30;;;;;;;;;;;16.20;99.90;;;;;;5038705;28;20387;-68
2023/09/08 04:38:56;;;;;;;;;;;16.20;99.90;;;;;;5074284;28;19921;-67
2023/09/08 04:41:21;;;;;;;;;;;16.20;99.90;;;;;;5043854;28;19924;-67
2023/09/08 04:43:47;;;;;;;;;;;16.20;99.90;;;;;;5043987;28;20062;-67
2023/09/08 04:46:12;;;;;;;;;;;16.20;99.90;;;;;;5041651;28;19920;-68
2023/09/08 04:48:37;;;;;;;;;;;16.20;99.90;;;;;;5044925;28;19921;-67
2023/09/08 04:51:03;;;;;;;;;;;16.20;99.90;;;;;;5039565;28;20352;-67
2023/09/08 04:53:28;;;;;;;;;;;16.20;99.90;;;;;;5042902;28;19967;-67
2023/09/08 04:55:54;;;;;;;;;;;16.20;99.90;;;;;;5042294;28;19916;-67
2023/09/08 04:58:19;;;;;;;;;;;16.20;99.90;;;;;;5043523;28;19932;-67
2023/09/08 05:00:45;;;;;;;;;;;16.20;99.90;;;;;;5041767;28;19917;-67
2023/09/08 05:03:10;;;;;;;;;;;16.10;99.90;;;;;;5044259;28;19922;-67
2023/09/08 05:05:36;;;;;;;;;;;16.10;99.90;;;;;;5042229;28;19917;-68
2023/09/08 05:08:01;;;;;;;;;;;16.20;99.90;;;;;;5039827;28;19956;-66
2023/09/08 05:10:27;;;;;;;;;;;16.10;99.90;;;;;;5043782;28;19960;-67
2023/09/08 05:12:52;;;;;;;;;;;16.20;99.90;;;;;;5070499;28;20299;-67
2023/09/08 05:15:20;;;;;;;;;;;16.20;99.90;;;;;;5076537;28;19955;-67
2023/09/08 05:17:46;;;;;;;;;;;16.20;99.90;;;;;;5042333;28;19924;-67
2023/09/08 05:20:12;;;;;;;;;;;16.20;99.90;;;;;;5041712;28;20581;-67
2023/09/08 05:22:37;;;;;;;;;;;16.20;99.90;;;;;;5043553;28;20310;-68
2023/09/08 05:25:03;;;;;;;;;;;16.20;99.90;;;;;;5042419;28;19920;-67
2023/09/08 05:27:29;;;;;;;;;;;16.20;99.90;;;;;;5042924;28;19913;-67
2023/09/08 05:29:54;;;;;;;;;;;16.20;99.90;;;;;;5042325;28;19925;-73
2023/09/08 05:32:20;;;;;;;;;;;16.20;99.90;;;;;;5023549;28;20322;-72
2023/09/08 05:34:45;;;;;;;;;;;16.20;99.90;;;;;;5044124;28;19917;-73
2023/09/08 05:37:11;;;;;;;;;;;16.10;99.90;;;;;;5046445;28;19917;-73
2023/09/08 05:39:36;;;;;;;;;;;16.00;99.90;;;;;;5038927;28;19989;-73
2023/09/08 05:42:02;;;;;;;;;;;16.10;99.90;;;;;;5063227;28;19928;-73
2023/09/08 05:44:27;;;;;;;;;;;16.00;99.90;;;;;;5029097;28;19970;-73
2023/09/08 05:46:52;;;;;;;;;;;16.00;99.90;;;;;;5041158;28;20266;-73
2023/09/08 05:49:18;;;;;;;;;;;16.00;99.90;;;;;;5039200;28;19939;-73
2023/09/08 05:51:44;;;;;;;;;;;16.00;99.90;;;;;;5023625;28;19945;-74
2023/09/08 05:54:10;;;;;;;;;;;16.00;99.90;;;;;;5043292;28;19959;-73
2023/09/08 05:56:36;;;;;;;;;;;16.00;99.90;;;;;;5040425;28;19920;-74
2023/09/08 05:59:02;;;;;;;;;;;16.00;99.90;;;;;;5024869;28;19924;-73
2023/09/08 06:01:27;;;;;;;;;;;16.00;99.90;;;;;;5043541;28;20721;-73
2023/09/08 06:03:54;;;;;;;;;;;16.10;99.90;;;;;;5042617;28;20222;-72
2023/09/08 06:06:20;;;;;;;;;;;16.20;99.90;;;;;;5042584;28;20275;-73
2023/09/08 06:08:45;;;;;;;;;;;16.20;99.90;;;;;;5040871;28;20458;-73
2023/09/08 06:11:12;;;;;;;;;;;16.30;99.90;;;;;;5041525;28;20007;-73
2023/09/08 06:13:37;;;;;;;;;;;16.30;99.90;;;;;;5043273;28;20223;-73
2023/09/08 06:16:03;;;;;;;;;;;16.40;99.90;;;;;;5040896;28;20210;-72
2023/09/08 06:18:30;;;;;;;;;;;16.50;99.90;;;;;;5055846;28;19932;-73
2023/09/08 06:20:56;;;;;;;;;;;16.60;99.90;;;;;;5041361;28;19921;-72
2023/09/08 06:23:21;;;;;;;;;;;16.60;99.90;;;;;;5023872;28;20446;-73
2023/09/08 06:25:47;;;;;;;;;;;16.70;99.90;;;;;;5041431;28;20027;-73
2023/09/08 06:28:12;;;;;;;;;;;16.80;99.90;;;;;;5040130;28;19917;-73
2023/09/08 06:30:41;;;;;;;;;;;16.80;99.90;;;;;;5046160;28;20378;-73
2023/09/08 06:33:09;;;;;;;;;;;16.90;99.90;;;;;;5071661;28;20349;-73
2023/09/08 06:35:34;;;;;;;;;;;17.00;99.90;;;;;;5041981;28;19921;-74
2023/09/08 06:38:00;;;;;;;;;;;17.10;99.90;;;;;;5039123;28;19929;-74
2023/09/08 06:40:26;;;;;;;;;;;17.20;99.90;;;;;;5041767;28;19932;-74
2023/09/08 06:42:51;;;;;;;;;;;17.30;99.90;;;;;;5037132;28;19924;-73
2023/09/08 06:45:17;;;;;;;;;;;17.30;99.90;;;;;;5020627;28;19922;-74
2023/09/08 06:47:43;;;;;;;;;;;17.40;99.90;;;;;;5075788;28;19964;-73
2023/09/08 06:50:09;;;;;;;;;;;17.50;99.90;;;;;;5042920;28;19939;-74
2023/09/08 06:52:35;;;;;;;;;;;17.70;99.90;;;;;;5029373;28;19920;-73
2023/09/08 06:55:01;;;;;;;;;;;17.70;99.90;;;;;;5047038;28;20390;-74
2023/09/08 06:57:26;;;;;;;;;;;17.90;99.90;;;;;;5043956;28;19985;-74
2023/09/08 06:59:52;;;;;;;;;;;18.00;99.90;;;;;;5044493;28;19921;-74
2023/09/08 07:02:17;;;;;;;;;;;18.10;99.90;;;;;;5038088;28;20352;-74
2023/09/08 07:04:42;;;;;;;;;;;18.20;99.90;;;;;;5047109;28;19935;-74
2023/09/08 07:07:10;;;;;;;;;;;18.30;99.90;;;;;;5041292;28;20007;-74
2023/09/08 07:09:36;;;;;;;;;;;18.40;99.90;;;;;;5045092;28;20470;-74
2023/09/08 07:12:06;;;;;;;;;;;18.50;99.90;;;;;;5043559;28;19932;-74
2023/09/08 07:14:31;;;;;;;;;;;18.60;99.90;;;;;;5049207;28;19958;-74
2023/09/08 07:16:57;;;;;;;;;;;18.70;99.90;;;;;;5037558;28;20326;-74
2023/09/08 07:19:22;;;;;;;;;;;18.80;99.90;;;;;;5076410;28;20438;-74
2023/09/08 07:21:48;;;;;;;;;;;18.90;99.90;;;;;;5044432;28;19925;-73
2023/09/08 07:24:13;;;;;;;;;;;19.00;99.90;;;;;;5025135;28;19947;-74
2023/09/08 07:26:39;;;;;;;;;;;19.20;99.90;;;;;;5042407;28;19966;-73
2023/09/08 07:29:04;;;;;;;;;;;19.30;99.90;;;;;;5053908;28;19916;-75
2023/09/08 07:31:30;;;;;;;;;;;19.40;99.90;;;;;;5071519;28;20309;-75
2023/09/08 07:33:55;;;;;;;;;;;19.50;99.90;;;;;;5046106;28;21369;-75
2023/09/08 07:36:21;;;;;;;;;;;19.50;99.90;;;;;;5041695;28;19916;-74
2023/09/08 07:38:46;;;;;;;;;;;19.60;99.90;;;;;;5044586;28;20298;-74
2023/09/08 07:41:12;;;;;;;;;;;19.70;99.90;;;;;;5041913;28;19921;-75
2023/09/08 07:43:40;;;;;;;;;;;19.80;99.90;;;;;;5045420;28;19982;-75
2023/09/08 07:46:06;;;;;;;;;;;19.90;99.90;;;;;;5042753;28;19917;-75
2023/09/08 07:48:32;;;;;;;;;;;20.00;99.90;;;;;;5046829;28;19923;-74
2023/09/08 07:50:59;;;;;;;;;;;20.10;99.90;;;;;;5050603;28;19920;-74
2023/09/08 07:53:25;;;;;;;;;;;20.10;99.90;;;;;;5045273;28;19916;-74
2023/09/08 07:55:50;;;;;;;;;;;20.20;99.90;;;;;;5044832;28;20395;-74
2023/09/08 07:58:16;;;;;;;;;;;20.30;99.90;;;;;;5049782;28;19986;-74
2023/09/08 08:00:41;;;;;;;;;;;20.30;99.90;;;;;;5050698;28;19920;-74
2023/09/08 08:03:07;;;;;;;;;;;20.40;99.90;;;;;;5030675;28;20478;-74
2023/09/08 08:05:32;;;;;;;;;;;20.50;99.90;;;;;;5046211;28;19975;-73
2023/09/08 08:07:58;;;;;;;;;;;20.50;99.90;;;;;;5051340;28;19920;-73
2023/09/08 08:10:23;;;;;;;;;;;20.60;99.90;;;;;;5027777;28;20395;-73
2023/09/08 08:12:49;;;;;;;;;;;20.80;99.90;;;;;;5051760;28;19928;-72
2023/09/08 08:15:14;;;;;;;;;;;20.80;99.90;;;;;;5050355;28;19916;-73
2023/09/08 08:17:40;;;;;;;;;;;20.90;99.90;;;;;;5047912;28;20429;-73
2023/09/08 08:20:06;;;;;;;;;;;21.00;99.90;;;;;;5040541;28;20641;-73
2023/09/08 08:22:33;;;;;;;;;;;21.10;99.90;;;;;;5039750;28;20504;-73
2023/09/08 08:24:58;;;;;;;;;;;21.20;99.90;;;;;;5028460;28;19942;-73
2023/09/08 08:27:24;;;;;;;;;;;21.30;99.90;;;;;;5037669;28;19921;-73
2023/09/08 08:29:50;;;;;;;;;;;21.40;99.90;;;;;;5038058;28;19917;-73
2023/09/08 08:32:16;;;;;;;;;;;21.50;99.90;;;;;;5069357;28;20236;-72
2023/09/08 08:34:42;;;;;;;;;;;21.70;99.90;;;;;;5037150;28;19913;-72
2023/09/08 08:37:07;;;;;;;;;;;21.80;99.90;;;;;;5038543;28;20007;-72
2023/09/08 08:39:33;;;;;;;;;;;21.80;99.90;;;;;;5039384;28;20290;-72
2023/09/08 08:41:58;;;;;;;;;;;22.00;99.90;;;;;;5042809;28;19925;-73
2023/09/08 08:44:24;;;;;;;;;;;22.20;99.90;;;;;;5053022;28;19917;-72
2023/09/08 08:46:50;;;;;;;;;;;22.20;99.90;;;;;;5039015;28;19983;-72
2023/09/08 08:49:16;;;;;;;;;;;22.30;99.90;;;;;;5042042;28;19955;-72
2023/09/08 08:51:48;;;;;;;;;;;22.30;99.90;;;;;;5039258;28;19917;-72
2023/09/08 08:54:15;;;;;;;;;;;22.50;99.90;;;;;;5039084;28;19967;-73
2023/09/08 08:56:41;;;;;;;;;;;22.60;99.90;;;;;;5035748;28;19917;-72
2023/09/08 08:59:08;;;;;;;;;;;22.60;99.90;;;;;;5039719;28;20000;-72
2023/09/08 09:01:34;;;;;;;;;;;22.70;99.90;;;;;;5075196;28;19921;-72
2023/09/08 09:03:59;;;;;;;;;;;22.70;99.90;;;;;;5030227;28;20376;-71
2023/09/08 09:06:25;;;;;;;;;;;22.80;99.90;;;;;;5037457;28;20659;-71
2023/09/08 09:08:50;;;;;;;;;;;22.90;99.90;;;;;;5020484;28;19943;-72
2023/09/08 09:11:16;;;;;;;;;;;22.90;99.90;;;;;;5037087;28;19927;-72
2023/09/08 09:13:41;;;;;;;;;;;23.00;99.90;;;;;;5043343;28;19986;-72
2023/09/08 09:16:10;;;;;;;;;;;23.00;99.90;;;;;;5041841;28;19924;-72
2023/09/08 09:18:55;;;;;;;;;;;23.10;99.90;;;;;;5040730;28;20375;-71
2023/09/08 09:21:21;;;;;;;;;;;23.20;99.90;;;;;;5041449;28;19924;-72
2023/09/08 09:23:46;;;;;;;;;;;23.20;99.90;;;;;;5040087;28;19921;-71
2023/09/08 09:26:22;;;;;;;;;;;23.40;99.90;;;;;;5068567;28;19985;-72
2023/09/08 09:28:48;;;;;;;;;;;23.50;99.90;;;;;;5073794;28;20257;-71
2023/09/08 09:31:13;;;;;;;;;;;23.60;99.90;;;;;;5045555;28;19924;-70
2023/09/08 09:33:39;;;;;;;;;;;23.70;99.90;;;;;;5047308;28;19921;-71
2023/09/08 09:36:05;;;;;;;;;;;23.70;99.90;;;;;;5043121;28;19917;-71
2023/09/08 09:38:31;;;;;;;;;;;23.80;99.90;;;;;;5049437;28;19928;-71
2023/09/08 09:40:57;;;;;;;;;;;23.90;99.90;;;;;;5040646;28;19916;-70
2023/09/08 09:43:22;;;;;;;;;;;24.00;99.90;;;;;;5042621;28;19924;-70
2023/09/08 09:45:48;;;;;;;;;;;24.00;99.90;;;;;;5038904;28;19924;-70
2023/09/08 09:48:15;;;;;;;;;;;24.10;99.90;;;;;;5045958;28;20371;-70
2023/09/08 09:50:41;;;;;;;;;;;24.20;99.90;;;;;;5042341;28;19956;-76
2023/09/08 09:53:16;;;;;;;;;;;24.20;99.90;;;;;;5041997;28;19968;-74
2023/09/08 09:55:43;;;;;;;;;;;24.30;99.90;;;;;;5039908;28;19924;-74
2023/09/08 09:58:10;;;;;;;;;;;24.40;99.90;;;;;;5073675;28;19975;-74
2023/09/08 10:00:37;;;;;;;;;;;24.50;99.90;;;;;;5040855;28;19921;-73
2023/09/08 10:03:03;;;;;;;;;;;24.50;99.90;;;;;;5042984;28;19974;-74
2023/09/08 10:05:29;;;;;;;;;;;24.60;99.90;;;;;;5044981;28;19920;-73
2023/09/08 10:07:55;;;;;;;;;;;24.60;99.90;;;;;;5040047;28;19927;-74
2023/09/08 10:10:21;;;;;;;;;;;24.70;99.90;;;;;;5047803;28;20312;-75
2023/09/08 10:12:53;;;;;;;;;;;24.80;99.90;;;;;;5042477;28;19967;-74
2023/09/08 10:15:20;;;;;;;;;;;24.80;99.90;;;;;;5042864;28;19928;-74
2023/09/08 10:17:47;;;;;;;;;;;24.90;99.90;;;;;;5043591;28;20379;-73
2023/09/08 10:20:13;;;;;;;;;;;24.90;99.90;;;;;;5048890;28;19917;-74
2023/09/08 10:22:42;;;;;;;;;;;25.00;99.90;;;;;;5044322;28;19920;-73
2023/09/08 10:25:08;;;;;;;;;;;25.00;99.90;;;;;;5043442;28;20007;-72
2023/09/08 10:27:35;;;;;;;;;;;25.10;99.90;;;;;;5040546;28;21090;-73
2023/09/08 10:30:03;;;;;;;;;;;25.10;99.90;;;;;;5047118;28;19986;-72
2023/09/08 10:32:28;;;;;;;;;;;25.20;99.90;;;;;;5040149;28;19924;-73
2023/09/08 10:34:54;;;;;;;;;;;25.20;99.90;;;;;;5042995;28;19921;-73
2023/09/08 10:37:20;;;;;;;;;;;25.30;99.90;;;;;;5037976;28;19942;-74
2023/09/08 10:39:45;;;;;;;;;;;25.30;99.90;;;;;;5038792;28;20411;-72
2023/09/08 10:42:18;;;;;;;;;;;25.40;99.90;;;;;;5056812;28;19954;-72
2023/09/08 10:44:44;;;;;;;;;;;25.40;99.90;;;;;;5072915;28;20330;-72
2023/09/08 10:47:09;;;;;;;;;;;25.50;99.90;;;;;;5038207;28;19947;-72
2023/09/08 10:49:35;;;;;;;;;;;25.50;99.90;;;;;;5040200;28;20405;-72
2023/09/08 10:52:08;;;;;;;;;;;25.60;99.90;;;;;;5035795;28;19920;-71
2023/09/08 10:54:40;;;;;;;;;;;25.70;99.90;;;;;;5035374;28;20369;-73
2023/09/08 10:57:06;;;;;;;;;;;25.80;99.90;;;;;;5033621;28;20011;-72
2023/09/08 10:59:35;;;;;;;;;;;25.90;99.90;;;;;;5039183;28;20121;-72
2023/09/08 11:02:03;;;;;;;;;;;25.90;99.90;;;;;;5032352;28;20552;-72
2023/09/08 11:04:29;;;;;;;;;;;26.00;99.90;;;;;;5054344;28;19920;-72
2023/09/08 11:06:58;;;;;;;;;;;26.10;99.90;;;;;;5034646;28;20322;-72
2023/09/08 11:09:23;;;;;;;;;;;26.10;99.90;;;;;;5038485;28;19971;-72
2023/09/08 11:11:49;;;;;;;;;;;26.20;99.90;;;;;;5039251;28;20405;-73
2023/09/08 11:14:15;;;;;;;;;;;26.20;99.90;;;;;;5041665;28;19917;-72
2023/09/08 11:16:41;;;;;;;;;;;26.20;99.90;;;;;;5038107;28;19963;-72
2023/09/08 11:19:06;;;;;;;;;;;26.30;99.90;;;;;;5045082;28;19952;-72
2023/09/08 11:21:35;;;;;;;;;;;26.30;99.90;;;;;;5036912;28;19925;-72
2023/09/08 11:24:01;;;;;;;;;;;26.40;99.90;;;;;;5041285;28;20479;-72
2023/09/08 11:26:27;;;;;;;;;;;26.40;99.90;;;;;;5035321;28;19999;-72
2023/09/08 11:28:53;;;;;;;;;;;26.40;99.90;;;;;;5044008;28;20010;-72
2023/09/08 11:31:19;;;;;;;;;;;26.50;99.90;;;;;;5074353;28;19974;-72
2023/09/08 11:33:48;;;;;;;;;;;26.50;99.90;;;;;;5048964;28;20016;-72
2023/09/08 11:36:14;;;;;;;;;;;26.50;99.90;;;;;;5025812;28;19928;-72
2023/09/08 11:38:42;;;;;;;;;;;26.60;99.90;;;;;;5049814;28;20438;-72
2023/09/08 11:41:07;;;;;;;;;;;26.70;99.90;;;;;;5047328;28;20587;-72
2023/09/08 11:43:34;;;;;;;;;;;26.80;99.90;;;;;;5048234;28;19920;-71
2023/09/08 11:45:59;;;;;;;;;;;26.90;99.90;;;;;;5042240;28;19928;-72
2023/09/08 11:48:25;;;;;;;;;;;26.90;99.90;;;;;;5044342;28;19920;-72
2023/09/08 11:50:54;;;;;;;;;;;26.90;99.90;;;;;;5043827;28;20208;-72
2023/09/08 11:53:20;;;;;;;;;;;26.90;99.90;;;;;;5045538;28;19917;-72
2023/09/08 11:55:46;;;;;;;;;;;26.90;99.90;;;;;;5031482;28;19968;-72
2023/09/08 11:58:12;;;;;;;;;;;26.90;99.90;;;;;;5048910;28;19975;-72
2023/09/08 12:00:39;;;;;;;;;;;27.00;99.90;;;;;;5047612;28;19994;-72
2023/09/08 12:03:11;;;;;;;;;;;27.00;99.90;;;;;;5045178;28;20256;-72
2023/09/08 12:05:37;;;;;;;;;;;27.00;99.90;;;;;;5043830;28;19928;-72
2023/09/08 12:08:05;;;;;;;;;;;27.00;99.90;;;;;;5045132;28;20367;-72
2023/09/08 12:10:37;;;;;;;;;;;27.00;99.90;;;;;;5047961;28;19992;-72
2023/09/08 12:13:02;;;;;;;;;;;27.00;99.90;;;;;;5040486;28;19967;-72
2023/09/08 12:15:38;;;;;;;;;;;27.00;99.90;;;;;;5079720;28;19921;-73
2023/09/08 12:18:05;;;;;;;;;;;27.10;99.90;;;;;;5046177;28;19921;-72
2023/09/08 12:20:31;;;;;;;;;;;27.10;99.90;;;;;;5048633;28;19916;-73
2023/09/08 12:23:01;;;;;;;;;;;27.20;99.90;;;;;;5045206;28;20021;-73
2023/09/08 12:25:27;;;;;;;;;;;27.20;99.90;;;;;;5046961;28;20383;-73
2023/09/08 12:27:53;;;;;;;;;;;27.20;99.90;;;;;;5025665;28;19917;-73
2023/09/08 12:30:19;;;;;;;;;;;27.20;99.90;;;;;;5080383;28;19925;-73
2023/09/08 12:32:46;;;;;;;;;;;27.30;99.90;;;;;;5042596;28;20398;-73
2023/09/08 12:35:11;;;;;;;;;;;27.30;99.90;;;;;;5049193;28;19932;-73
2023/09/08 12:37:38;;;;;;;;;;;27.30;99.90;;;;;;5033097;28;20007;-73
2023/09/08 12:40:04;;;;;;;;;;;27.20;99.90;;;;;;5046022;28;19964;-73
2023/09/08 12:42:30;;;;;;;;;;;27.30;99.90;;;;;;5040934;28;20007;-73
2023/09/08 12:44:55;;;;;;;;;;;27.30;99.90;;;;;;5045325;28;19917;-73
2023/09/08 12:47:21;;;;;;;;;;;27.40;99.90;;;;;;5040658;28;19921;-73
2023/09/08 12:49:47;;;;;;;;;;;27.30;99.90;;;;;;5041935;28;19928;-72
2023/09/08 12:52:12;;;;;;;;;;;27.30;99.90;;;;;;5041739;28;19916;-73
2023/09/08 12:54:38;;;;;;;;;;;27.30;99.90;;;;;;5045904;28;19920;-72
2023/09/08 12:57:03;;;;;;;;;;;27.30;99.90;;;;;;5039940;28;19947;-73
2023/09/08 12:59:29;;;;;;;;;;;27.30;99.90;;;;;;5041112;28;19936;-73
2023/09/08 13:01:55;;;;;;;;;;;27.30;99.90;;;;;;5043382;28;19932;-72
2023/09/08 13:04:22;;;;;;;;;;;27.40;99.90;;;;;;5040371;28;20387;-72
2023/09/08 13:06:47;;;;;;;;;;;27.40;99.90;;;;;;5044977;28;19916;-72
2023/09/08 13:09:13;;;;;;;;;;;27.50;99.90;;;;;;5043613;28;20398;-73
2023/09/08 13:11:38;;;;;;;;;;;27.50;99.90;;;;;;5047578;28;20383;-73
2023/09/08 13:14:04;;;;;;;;;;;27.60;99.90;;;;;;5046358;28;19925;-72
2023/09/08 13:16:29;;;;;;;;;;;27.60;99.90;;;;;;5045250;28;20010;-73
2023/09/08 13:18:55;;;;;;;;;;;27.70;99.90;;;;;;5041443;28;20275;-73
2023/09/08 13:21:20;;;;;;;;;;;27.70;99.90;;;;;;5043581;28;19931;-73
2023/09/08 13:23:46;;;;;;;;;;;27.70;99.90;;;;;;5040006;28;19924;-72
2023/09/08 13:26:11;;;;;;;;;;;27.80;99.90;;;;;;5045495;28;19999;-67
2023/09/08 13:28:37;;;;;;;;;;;27.80;99.90;;;;;;5041879;28;20501;-67
2023/09/08 13:31:02;;;;;;;;;;;27.90;99.90;;;;;;5045217;28;19963;-66
2023/09/08 13:33:28;;;;;;;;;;;27.90;99.90;;;;;;5045575;28;20375;-66
2023/09/08 13:35:54;;;;;;;;;;;27.90;99.90;;;;;;5045798;28;19923;-67
2023/09/08 13:38:19;;;;;;;;;;;27.90;99.90;;;;;;5042479;28;19927;-67
2023/09/08 13:40:45;;;;;;;;;;;27.90;99.90;;;;;;5047265;28;19916;-67
2023/09/08 13:43:11;;;;;;;;;;;28.00;99.90;;;;;;5046642;28;19916;-67
2023/09/08 13:45:36;;;;;;;;;;;28.00;99.90;;;;;;5048466;28;20401;-67
2023/09/08 13:48:04;;;;;;;;;;;28.00;99.90;;;;;;5043857;28;19946;-67
2023/09/08 13:50:29;;;;;;;;;;;28.00;99.90;;;;;;5047575;28;19955;-67
2023/09/08 13:52:55;;;;;;;;;;;28.00;99.90;;;;;;5045809;28;20351;-67
2023/09/08 13:55:23;;;;;;;;;;;28.00;99.90;;;;;;5045787;28;20024;-67
2023/09/08 13:57:49;;;;;;;;;;;28.10;99.90;;;;;;5046367;28;20384;-67
2023/09/08 14:00:15;;;;;;;;;;;28.10;99.90;;;;;;5049112;28;19931;-67
2023/09/08 14:02:41;;;;;;;;;;;28.10;99.90;;;;;;5041820;28;19921;-67
2023/09/08 14:05:07;;;;;;;;;;;28.10;99.90;;;;;;5046622;28;19971;-67
2023/09/08 14:07:32;;;;;;;;;;;28.20;99.90;;;;;;5042748;28;19917;-67
2023/09/08 14:09:58;;;;;;;;;;;28.20;99.90;;;;;;5043766;28;20287;-67